createdAt,value
2022-08-02T00:00:40.988Z,1.83
2022-08-02T00:03:09.058Z,2.20
2022-08-02T00:05:37.344Z,1.73
2022-08-02T00:08:06.075Z,1.87
2022-08-02T00:10:35.614Z,2.00
2022-08-02T00:13:03.692Z,1.70
2022-08-02T00:15:31.883Z,1.87
2022-08-02T00:17:59.933Z,1.70
2022-08-02T00:20:27.987Z,1.90
2022-08-02T00:22:56.011Z,1.77
2022-08-02T00:25:24.163Z,2.00
2022-08-02T00:27:53.534Z,2.20
2022-08-02T00:30:21.610Z,2.00
2022-08-02T00:32:49.700Z,1.90
2022-08-02T00:35:19.568Z,2.30
2022-08-02T00:37:47.718Z,2.10
2022-08-02T00:40:15.970Z,1.80
2022-08-02T00:42:44.142Z,2.37
2022-08-02T00:45:13.617Z,1.77
2022-08-02T00:47:41.613Z,1.80
2022-08-02T00:50:10.959Z,1.70
2022-08-02T00:52:39.015Z,2.00
2022-08-02T00:55:08.309Z,1.73
2022-08-02T00:57:37.055Z,1.57
2022-08-02T01:00:07.270Z,1.90
2022-08-02T01:02:36.735Z,1.80
2022-08-02T01:05:05.084Z,1.70
2022-08-02T01:07:33.650Z,1.67
2022-08-02T01:10:01.863Z,1.83
2022-08-02T01:12:29.983Z,1.77
2022-08-02T01:15:05.512Z,1.90
2022-08-02T01:17:44.347Z,1.77
2022-08-02T01:20:37.323Z,1.57
2022-08-02T01:23:26.287Z,1.70
2022-08-02T01:26:19.603Z,1.70
2022-08-02T01:28:59.069Z,1.87
2022-08-02T01:31:31.983Z,1.97
2022-08-02T01:34:07.713Z,2.00
2022-08-02T01:36:41.478Z,1.67
2022-08-02T01:39:27.582Z,1.60
2022-08-02T01:42:02.330Z,1.90
2022-08-02T01:44:35.992Z,1.73
2022-08-02T01:47:08.559Z,2.00
2022-08-02T01:49:38.659Z,1.83
2022-08-02T01:52:22.847Z,2.03
2022-08-02T01:54:57.663Z,2.10
2022-08-02T01:57:27.603Z,1.83
2022-08-02T02:00:00.252Z,1.70
2022-08-02T02:02:32.400Z,1.40
2022-08-02T02:05:02.387Z,1.70
2022-08-02T02:07:33.018Z,1.87
2022-08-02T02:10:03.717Z,1.80
2022-08-02T02:12:35.875Z,1.70
2022-08-02T02:15:07.525Z,1.70
2022-08-02T02:17:50.622Z,1.67
2022-08-02T02:20:25.986Z,1.70
2022-08-02T02:22:54.335Z,1.73
2022-08-02T02:25:28.177Z,1.80
2022-08-02T02:28:11.412Z,1.90
2022-08-02T02:30:48.443Z,1.57
2022-08-02T02:33:20.044Z,1.43
2022-08-02T02:35:52.658Z,1.53
2022-08-02T02:38:22.842Z,1.47
2022-08-02T02:40:51.611Z,1.50
2022-08-02T02:43:21.189Z,2.07
2022-08-02T02:45:51.480Z,1.30
2022-08-02T02:48:19.703Z,1.40
2022-08-02T02:50:49.485Z,1.50
2022-08-02T02:53:20.537Z,1.40
2022-08-02T02:56:02.073Z,1.47
2022-08-02T02:58:31.495Z,1.40
2022-08-02T03:01:19.202Z,1.40
2022-08-02T03:03:47.717Z,1.40
2022-08-02T03:06:16.222Z,1.60
2022-08-02T03:08:44.890Z,1.30
2022-08-02T03:11:15.767Z,1.93
2022-08-02T03:13:44.340Z,1.63
2022-08-02T03:16:14.326Z,1.40
2022-08-02T03:18:44.518Z,1.73
2022-08-02T03:21:14.295Z,1.50
2022-08-02T03:23:44.109Z,1.53
2022-08-02T03:26:12.410Z,1.53
2022-08-02T03:28:40.814Z,1.47
2022-08-02T03:31:09.051Z,1.70
2022-08-02T03:33:39.989Z,1.60
2022-08-02T03:36:12.535Z,1.60
2022-08-02T03:38:42.567Z,1.30
2022-08-02T03:41:13.708Z,1.27
2022-08-02T03:43:43.750Z,1.70
2022-08-02T03:46:13.908Z,1.70
2022-08-02T03:48:43.534Z,1.40
2022-08-02T03:51:12.579Z,1.30
2022-08-02T03:53:41.557Z,1.20
2022-08-02T03:56:11.709Z,1.50
2022-08-02T03:58:40.011Z,1.50
2022-08-02T04:01:08.441Z,1.40
2022-08-02T04:03:36.751Z,1.80
2022-08-02T04:06:06.422Z,1.40
2022-08-02T04:08:37.948Z,1.60
2022-08-02T04:11:24.778Z,1.60
2022-08-02T04:13:56.914Z,1.43
2022-08-02T04:16:34.248Z,1.77
2022-08-02T04:19:04.758Z,1.70
2022-08-02T04:21:50.469Z,1.87
2022-08-02T04:24:26.208Z,1.53
2022-08-02T04:26:57.855Z,1.50
2022-08-02T04:29:36.099Z,1.40
2022-08-02T04:32:05.866Z,1.73
2022-08-02T04:34:34.078Z,1.70
2022-08-02T04:37:03.938Z,1.60
2022-08-02T04:39:31.986Z,1.30
2022-08-02T04:42:00.209Z,1.40
2022-08-02T04:44:28.467Z,1.60
2022-08-02T04:46:56.763Z,1.70
2022-08-02T04:49:24.869Z,1.90
2022-08-02T04:51:52.980Z,1.60
2022-08-02T04:54:22.694Z,1.70
2022-08-02T04:56:50.718Z,1.70
2022-08-02T04:59:18.792Z,1.70
2022-08-02T05:01:47.006Z,1.80
2022-08-02T05:04:15.253Z,1.70
2022-08-02T05:06:43.299Z,1.53
2022-08-02T05:09:11.388Z,1.70
2022-08-02T05:11:40.765Z,1.43
2022-08-02T05:14:08.814Z,1.57
2022-08-02T05:16:36.859Z,1.67
2022-08-02T05:19:04.996Z,1.70
2022-08-02T05:21:33.209Z,1.77
2022-08-02T05:24:01.267Z,1.77
2022-08-02T05:26:29.333Z,1.73
2022-08-02T05:28:58.751Z,1.90
2022-08-02T05:31:27.075Z,1.83
2022-08-02T05:33:58.576Z,1.50
2022-08-02T05:36:27.399Z,1.80
2022-08-02T05:38:59.550Z,1.87
2022-08-02T05:41:30.555Z,1.90
2022-08-02T05:43:59.972Z,1.67
2022-08-02T05:46:28.380Z,1.57
2022-08-02T05:48:56.560Z,1.80
2022-08-02T05:51:30.215Z,1.80
2022-08-02T05:54:11.939Z,2.23
2022-08-02T05:56:47.413Z,1.73
2022-08-02T05:59:36.502Z,2.03
2022-08-02T06:02:16.417Z,1.97
2022-08-02T06:05:02.573Z,2.07
2022-08-02T06:07:35.783Z,2.00
2022-08-02T06:10:05.431Z,1.97
2022-08-02T06:12:37.143Z,2.40
2022-08-02T06:15:07.974Z,1.70
2022-08-02T06:17:41.716Z,2.10
2022-08-02T06:20:15.107Z,2.43
2022-08-02T06:22:45.994Z,2.10
2022-08-02T06:25:51.029Z,2.10
2022-08-02T06:28:11.513Z,1.97
2022-08-02T06:30:42.849Z,1.97
2022-08-02T06:33:11.088Z,2.10
2022-08-02T06:35:49.410Z,2.10
2022-08-02T06:38:23.699Z,2.17
2022-08-02T06:41:02.097Z,2.13
2022-08-02T06:43:41.748Z,2.00
2022-08-02T06:46:38.044Z,1.90
2022-08-02T06:49:05.204Z,1.77
2022-08-02T06:51:34.142Z,1.93
2022-08-02T06:54:06.783Z,1.80
2022-08-02T06:56:34.888Z,2.10
2022-08-02T06:59:05.982Z,2.07
2022-08-02T07:01:38.752Z,2.10
2022-08-02T07:04:07.604Z,1.97
2022-08-02T07:06:35.669Z,1.60
2022-08-02T07:09:21.173Z,1.87
2022-08-02T07:11:49.957Z,1.70
2022-08-02T07:14:18.030Z,1.73
2022-08-02T07:16:47.426Z,2.07
2022-08-02T07:19:15.452Z,1.80
2022-08-02T07:21:57.042Z,2.43
2022-08-02T07:24:27.583Z,2.20
2022-08-02T07:27:10.490Z,2.27
2022-08-02T07:29:44.862Z,2.20
2022-08-02T07:32:17.046Z,2.00
2022-08-02T07:34:50.257Z,1.90
2022-08-02T07:37:35.555Z,2.00
2022-08-02T07:40:14.126Z,2.30
2022-08-02T07:42:44.592Z,2.60
2022-08-02T07:45:17.275Z,2.37
2022-08-02T07:47:47.913Z,2.20
2022-08-02T07:50:43.611Z,2.30
2022-08-02T07:53:11.641Z,2.20
2022-08-02T07:55:40.780Z,2.07
2022-08-02T07:58:10.971Z,2.10
2022-08-02T08:00:42.042Z,2.40
2022-08-02T08:03:11.477Z,2.40
2022-08-02T08:05:39.691Z,2.27
2022-08-02T08:08:08.834Z,2.30
2022-08-02T08:10:41.447Z,2.77
2022-08-02T08:13:09.480Z,2.63
2022-08-02T08:15:38.578Z,2.70
2022-08-02T08:18:06.780Z,2.07
2022-08-02T08:20:36.394Z,2.33
2022-08-02T08:23:07.136Z,2.63
2022-08-02T08:25:39.688Z,2.43
2022-08-02T08:28:10.084Z,2.53
2022-08-02T08:30:38.262Z,2.27
2022-08-02T08:33:06.344Z,2.30
2022-08-02T08:35:36.201Z,2.53
2022-08-02T08:38:07.741Z,2.53
2022-08-02T08:40:37.013Z,2.70
2022-08-02T08:43:06.107Z,2.30
2022-08-02T08:45:34.370Z,2.40
2022-08-02T08:48:13.744Z,2.70
2022-08-02T08:50:51.740Z,2.47
2022-08-02T08:53:22.543Z,2.83
2022-08-02T08:56:05.460Z,2.50
2022-08-02T08:58:33.535Z,2.77
2022-08-02T09:01:01.805Z,2.67
2022-08-02T09:03:34.096Z,2.90
2022-08-02T09:06:29.048Z,2.43
2022-08-02T09:08:57.086Z,2.53
2022-08-02T09:11:27.128Z,2.63
2022-08-02T09:13:58.733Z,2.50
2022-08-02T09:16:32.825Z,2.70
2022-08-02T09:19:02.011Z,2.67
2022-08-02T09:21:38.930Z,2.50
2022-08-02T09:24:18.728Z,2.97
2022-08-02T09:26:47.966Z,2.97
2022-08-02T09:29:16.695Z,2.70
2022-08-02T09:31:50.045Z,2.50
2022-08-02T09:34:19.936Z,2.50
2022-08-02T09:36:54.640Z,2.60
2022-08-02T09:39:26.351Z,2.73
2022-08-02T09:42:08.271Z,3.00
2022-08-02T09:44:36.627Z,2.90
2022-08-02T09:47:16.483Z,2.67
2022-08-02T09:49:52.318Z,3.07
2022-08-02T09:52:37.288Z,2.70
2022-08-02T09:55:13.241Z,2.73
2022-08-02T09:57:41.577Z,2.80
2022-08-02T10:00:16.185Z,2.87
2022-08-02T10:03:07.277Z,3.20
2022-08-02T10:05:55.751Z,2.53
2022-08-02T10:08:26.895Z,3.00
2022-08-02T10:11:01.626Z,3.00
2022-08-02T10:13:31.708Z,2.73
2022-08-02T10:16:00.021Z,2.87
2022-08-02T10:18:38.685Z,3.00
2022-08-02T10:21:12.694Z,2.63
2022-08-02T10:23:46.569Z,3.10
2022-08-02T10:26:20.413Z,2.70
2022-08-02T10:28:50.783Z,2.60
2022-08-02T10:31:25.077Z,2.57
2022-08-02T10:33:55.506Z,2.30
2022-08-02T10:36:27.053Z,2.30
2022-08-02T10:38:58.645Z,2.50
2022-08-02T10:41:44.752Z,2.47
2022-08-02T10:44:28.678Z,2.53
2022-08-02T10:47:24.015Z,2.57
2022-08-02T10:49:54.707Z,2.20
2022-08-02T10:52:23.895Z,2.60
2022-08-02T10:54:57.637Z,2.60
2022-08-02T10:57:27.800Z,2.30
2022-08-02T10:59:58.763Z,2.60
2022-08-02T11:02:38.590Z,2.90
2022-08-02T11:05:15.086Z,2.67
2022-08-02T11:07:47.710Z,2.47
2022-08-02T11:10:40.098Z,2.53
2022-08-02T11:13:19.591Z,2.50
2022-08-02T11:16:02.109Z,2.20
2022-08-02T11:19:06.727Z,2.50
2022-08-02T11:21:36.902Z,2.53
2022-08-02T11:24:30.522Z,2.20
2022-08-02T11:27:02.354Z,2.40
2022-08-02T11:29:42.156Z,2.63
2022-08-02T11:32:17.782Z,2.47
2022-08-02T11:34:49.207Z,1.90
2022-08-02T11:37:29.604Z,2.27
2022-08-02T11:39:57.681Z,2.13
2022-08-02T11:42:34.401Z,2.20
2022-08-02T11:45:03.000Z,2.30
2022-08-02T11:47:31.982Z,2.20
2022-08-02T11:50:06.997Z,2.20
2022-08-02T11:52:36.694Z,2.40
2022-08-02T11:55:07.159Z,2.00
2022-08-02T11:58:01.713Z,2.13
2022-08-02T12:00:30.339Z,2.10
2022-08-02T12:02:59.137Z,2.20
2022-08-02T12:06:04.734Z,2.20
2022-08-02T12:08:18.966Z,2.20
2022-08-02T12:10:50.062Z,2.57
2022-08-02T12:13:19.587Z,1.80
2022-08-02T12:15:48.265Z,2.23
2022-08-02T12:18:36.401Z,2.20
2022-08-02T12:21:05.674Z,2.30
2022-08-02T12:23:33.717Z,2.17
2022-08-02T12:26:05.161Z,2.30
2022-08-02T12:28:39.021Z,2.50
2022-08-02T12:31:10.575Z,2.30
2022-08-02T12:33:48.519Z,1.70
2022-08-02T12:36:17.675Z,1.93
2022-08-02T12:38:52.826Z,2.20
2022-08-02T12:41:30.936Z,2.20
2022-08-02T12:44:02.045Z,2.30
2022-08-02T12:46:31.474Z,2.10
2022-08-02T12:49:18.652Z,2.00
2022-08-02T12:51:54.553Z,2.20
2022-08-02T12:54:32.571Z,1.90
2022-08-02T12:57:12.427Z,2.30
2022-08-02T12:59:45.072Z,2.10
2022-08-02T13:02:16.662Z,2.00
2022-08-02T13:04:49.681Z,2.53
2022-08-02T13:07:19.374Z,2.20
2022-08-02T13:09:48.415Z,2.17
2022-08-02T13:12:17.528Z,2.00
2022-08-02T13:14:47.255Z,2.20
2022-08-02T13:17:15.316Z,1.90
2022-08-02T13:19:43.408Z,2.10
2022-08-02T13:22:11.788Z,2.30
2022-08-02T13:24:56.609Z,2.00
2022-08-02T13:27:27.142Z,2.03
2022-08-02T13:29:58.205Z,2.40
2022-08-02T13:32:27.880Z,1.80
2022-08-02T13:34:56.854Z,2.03
2022-08-02T13:37:25.473Z,2.10
2022-08-02T13:40:19.103Z,1.70
2022-08-02T13:42:42.749Z,2.00
2022-08-02T13:45:15.257Z,2.23
2022-08-02T13:48:05.117Z,1.80
2022-08-02T13:50:33.702Z,2.07
2022-08-02T13:53:01.760Z,2.20
2022-08-02T13:55:29.939Z,1.90
2022-08-02T13:57:58.390Z,1.90
2022-08-02T14:00:35.142Z,2.20
2022-08-02T14:03:06.713Z,2.23
2022-08-02T14:05:47.005Z,1.90
2022-08-02T14:08:18.360Z,2.20
2022-08-02T14:10:47.983Z,1.83
2022-08-02T14:13:16.147Z,2.03
2022-08-02T14:15:45.562Z,1.70
2022-08-02T14:18:15.219Z,2.00
2022-08-02T14:20:44.028Z,1.67
2022-08-02T14:23:12.404Z,1.90
2022-08-02T14:25:40.666Z,2.27
2022-08-02T14:28:08.967Z,1.80
2022-08-02T14:30:37.218Z,1.97
2022-08-02T14:33:06.682Z,2.20
2022-08-02T14:35:34.938Z,1.80
2022-08-02T14:38:03.046Z,1.83
2022-08-02T14:40:32.164Z,1.67
2022-08-02T14:43:01.337Z,2.13
2022-08-02T14:45:40.128Z,1.90
2022-08-02T14:48:12.870Z,2.27
2022-08-02T14:50:41.070Z,1.77
2022-08-02T14:53:12.020Z,2.13
2022-08-02T14:55:43.172Z,2.10
2022-08-02T14:58:12.240Z,1.70
2022-08-02T15:00:41.871Z,1.90
2022-08-02T15:03:14.443Z,2.23
2022-08-02T15:05:42.619Z,1.63
2022-08-02T15:08:10.981Z,1.73
2022-08-02T15:10:39.085Z,1.73
2022-08-02T15:13:07.538Z,1.90
2022-08-02T15:15:43.166Z,1.80
2022-08-02T15:18:14.611Z,2.13
2022-08-02T15:20:50.772Z,1.90
2022-08-02T15:23:37.560Z,1.80
2022-08-02T15:26:07.638Z,1.93
2022-08-02T15:28:35.959Z,1.80
2022-08-02T15:31:04.106Z,1.87
2022-08-02T15:33:33.580Z,1.90
2022-08-02T15:36:01.678Z,2.07
2022-08-02T15:38:29.722Z,1.70
2022-08-02T15:40:57.794Z,1.80
2022-08-02T15:43:26.012Z,1.67
2022-08-02T15:45:54.280Z,1.70
2022-08-02T15:48:22.551Z,1.83
2022-08-02T15:50:51.988Z,1.50
2022-08-02T15:53:20.053Z,1.80
2022-08-02T15:56:04.022Z,1.70
2022-08-02T15:58:34.783Z,2.20
2022-08-02T16:01:12.604Z,2.00
2022-08-02T16:03:40.713Z,2.10
2022-08-02T16:06:10.135Z,1.80
2022-08-02T16:08:38.184Z,1.97
2022-08-02T16:11:12.731Z,2.27
2022-08-02T16:13:54.633Z,1.97
2022-08-02T16:16:24.279Z,1.80
2022-08-02T16:18:52.408Z,1.90
2022-08-02T16:21:24.521Z,1.70
2022-08-02T16:23:59.535Z,1.93
2022-08-02T16:26:32.459Z,1.93
2022-08-02T16:29:01.719Z,1.90
2022-08-02T16:31:29.889Z,2.10
2022-08-02T16:33:58.356Z,1.63
2022-08-02T16:36:28.367Z,2.13
2022-08-02T16:38:56.873Z,2.33
2022-08-02T16:41:45.575Z,2.03
2022-08-02T16:44:13.314Z,1.73
2022-08-02T16:46:41.533Z,1.73
2022-08-02T16:50:05.297Z,1.90
2022-08-02T16:52:03.359Z,2.20
2022-08-02T16:54:31.709Z,2.00
2022-08-02T16:56:59.821Z,1.90
2022-08-02T16:59:27.871Z,2.00
2022-08-02T17:02:15.118Z,2.00
2022-08-02T17:04:47.407Z,1.77
2022-08-02T17:08:07.808Z,2.10
2022-08-02T17:10:09.032Z,1.70
2022-08-02T17:12:39.002Z,1.70
2022-08-02T17:16:07.539Z,2.20
2022-08-02T17:17:58.217Z,1.87
2022-08-02T17:20:26.257Z,1.90
2022-08-02T17:22:56.225Z,1.83
2022-08-02T17:25:28.994Z,1.77
2022-08-02T17:28:00.203Z,1.90
2022-08-02T17:30:29.462Z,1.93
2022-08-02T17:32:59.323Z,1.90
2022-08-02T17:35:39.965Z,2.23
2022-08-02T17:38:17.847Z,1.90
2022-08-02T17:40:54.445Z,1.77
2022-08-02T17:43:22.621Z,1.97
2022-08-02T17:46:00.374Z,2.03
2022-08-02T17:48:55.130Z,1.73
2022-08-02T17:52:14.949Z,1.90
2022-08-02T17:54:14.065Z,1.67
2022-08-02T17:56:42.955Z,1.80
2022-08-02T17:59:20.489Z,1.80
2022-08-02T18:01:52.985Z,2.00
2022-08-02T18:04:26.938Z,2.20
2022-08-02T18:06:59.509Z,1.60
2022-08-02T18:09:34.562Z,1.93
2022-08-02T18:12:02.866Z,2.07
2022-08-02T18:14:30.976Z,2.07
2022-08-02T18:16:59.001Z,1.90
2022-08-02T18:19:33.114Z,1.97
2022-08-02T18:22:11.717Z,1.83
2022-08-02T18:24:41.570Z,1.77
2022-08-02T18:27:13.924Z,1.80
2022-08-02T18:29:42.125Z,1.73
2022-08-02T18:32:11.402Z,1.70
2022-08-02T18:34:40.769Z,1.93
2022-08-02T18:37:15.825Z,1.77
2022-08-02T18:39:51.402Z,1.60
2022-08-02T18:42:19.992Z,1.77
2022-08-02T18:44:48.231Z,1.60
2022-08-02T18:47:16.414Z,1.90
2022-08-02T18:50:08.292Z,2.00
2022-08-02T18:52:37.909Z,1.90
2022-08-02T18:55:17.502Z,1.90
2022-08-02T18:58:16.902Z,1.97
2022-08-02T19:00:51.590Z,1.60
2022-08-02T19:03:20.531Z,1.83
2022-08-02T19:05:51.505Z,1.90
2022-08-02T19:08:25.534Z,2.07
2022-08-02T19:11:02.602Z,1.60
2022-08-02T19:13:31.218Z,2.00
2022-08-02T19:15:59.379Z,2.17
2022-08-02T19:18:30.180Z,1.90
2022-08-02T19:21:05.186Z,1.93
2022-08-02T19:23:34.141Z,1.60
2022-08-02T19:26:03.994Z,1.87
2022-08-02T19:28:32.111Z,2.27
2022-08-02T19:31:02.355Z,2.10
2022-08-02T19:34:05.829Z,2.10
2022-08-02T19:36:19.141Z,1.97
2022-08-02T19:38:49.068Z,1.87
2022-08-02T19:41:18.844Z,1.97
2022-08-02T19:44:23.314Z,2.17
2022-08-02T19:46:38.410Z,1.83
2022-08-02T19:49:16.482Z,1.83
2022-08-02T19:51:54.932Z,2.17
2022-08-02T19:54:35.757Z,1.80
2022-08-02T19:57:19.360Z,2.40
2022-08-02T19:59:47.845Z,1.90
2022-08-02T20:02:18.543Z,2.37
2022-08-02T20:04:49.853Z,1.90
2022-08-02T20:07:48.222Z,2.23
2022-08-02T20:10:11.186Z,2.33
2022-08-02T20:12:41.806Z,2.20
2022-08-02T20:15:14.891Z,1.90
2022-08-02T20:17:47.292Z,2.00
2022-08-02T20:20:16.831Z,1.90
2022-08-02T20:23:32.044Z,1.90
2022-08-02T20:25:54.071Z,1.77
2022-08-02T20:28:23.830Z,2.20
2022-08-02T20:30:51.946Z,2.00
2022-08-02T20:33:23.783Z,2.20
2022-08-02T20:35:53.349Z,1.90
2022-08-02T20:38:24.773Z,2.13
2022-08-02T20:40:56.461Z,1.77
2022-08-02T20:43:31.140Z,2.27
2022-08-02T20:46:00.393Z,1.80
2022-08-02T20:48:29.997Z,2.10
2022-08-02T20:50:58.394Z,2.00
2022-08-02T20:53:29.966Z,2.03
2022-08-02T20:55:58.697Z,2.10
2022-08-02T20:58:29.362Z,2.40
2022-08-02T21:01:00.038Z,2.50
2022-08-02T21:03:32.297Z,2.70
2022-08-02T21:06:08.812Z,2.13
2022-08-02T21:08:38.421Z,2.20
2022-08-02T21:11:09.208Z,1.73
2022-08-02T21:13:47.018Z,1.80
2022-08-02T21:16:30.455Z,2.00
2022-08-02T21:19:00.027Z,1.90
2022-08-02T21:21:28.620Z,2.07
2022-08-02T21:23:58.785Z,2.00
2022-08-02T21:26:31.269Z,2.17
2022-08-02T21:29:03.816Z,1.70
2022-08-02T21:31:35.871Z,2.13
2022-08-02T21:34:21.704Z,2.00
2022-08-02T21:36:51.055Z,1.73
2022-08-02T21:39:20.524Z,2.00
2022-08-02T21:41:49.371Z,2.10
2022-08-02T21:44:21.686Z,1.97
2022-08-02T21:46:51.859Z,1.90
2022-08-02T21:49:20.663Z,2.30
2022-08-02T21:51:50.366Z,2.43
2022-08-02T21:54:21.012Z,2.00
2022-08-02T21:56:51.971Z,2.03
2022-08-02T21:59:26.099Z,2.00
2022-08-02T22:01:56.703Z,2.20
2022-08-02T22:04:26.423Z,2.20
2022-08-02T22:06:55.238Z,2.40
2022-08-02T22:09:43.542Z,2.20
2022-08-02T22:12:16.461Z,2.10
2022-08-02T22:14:53.790Z,2.10
2022-08-02T22:17:51.192Z,2.07
2022-08-02T22:20:14.468Z,2.10
2022-08-02T22:22:43.689Z,2.30
2022-08-02T22:25:26.827Z,2.30
2022-08-02T22:28:35.256Z,1.97
2022-08-02T22:30:51.156Z,1.70
2022-08-02T22:33:42.438Z,2.00
2022-08-02T22:36:16.035Z,2.07
2022-08-02T22:38:44.854Z,1.90
2022-08-02T22:41:13.701Z,2.50
2022-08-02T22:43:42.037Z,2.20
2022-08-02T22:46:15.217Z,2.00
2022-08-02T22:48:43.853Z,2.30
2022-08-02T22:51:12.669Z,2.00
2022-08-02T22:53:41.725Z,2.30
2022-08-02T22:56:11.281Z,2.37
2022-08-02T23:01:29.785Z,2.77
2022-08-02T23:03:57.942Z,1.90
2022-08-02T23:06:26.122Z,2.30
2022-08-02T23:08:54.210Z,1.90
2022-08-02T23:11:23.157Z,2.30
2022-08-02T23:13:51.300Z,1.70
2022-08-02T23:16:38.747Z,2.10
2022-08-02T23:19:26.070Z,2.00
2022-08-02T23:22:01.930Z,2.13
2022-08-02T23:24:33.229Z,2.10
2022-08-02T23:27:01.933Z,2.17
2022-08-02T23:29:30.204Z,2.20
2022-08-02T23:31:59.021Z,2.07
2022-08-02T23:34:28.676Z,2.27
2022-08-02T23:36:56.710Z,2.10
2022-08-02T23:39:25.135Z,2.43
2022-08-02T23:41:55.228Z,2.70
2022-08-02T23:44:24.695Z,2.60
2022-08-02T23:46:53.879Z,2.80
2022-08-02T23:49:23.736Z,2.40
2022-08-02T23:52:00.924Z,2.30
2022-08-02T23:54:29.931Z,2.47
2022-08-02T23:56:57.979Z,2.67
2022-08-02T23:59:26.129Z,2.60
